Middlebury, Pennsylvania
Current Conditions -  °F | °C
As of 8:15 PM on Thursday 27 Nov 2014 (Local Time) from KN38 Reporting Station
Overcast Overcast  
Wind Chill: 27°   Ceiling: 4400
Heat Index: 27°   Visibility: 9mi
Dew Point: 21°   Wind: 3mph
Humidity: 80%   Direction: 200°SSW
Pressure: 30.03"   Gusts: NA
Location:  41.8913°N, 77.3093°W
Report Text: KN38 280115Z AUTO 20003KT 9SM SCT033 OVC044 M03/M06 A3003 RMK AO2
Loading
Personal Weather Stations






























Interactive Weather Map New forecast layout! Learn more

10-Day Weather Forecast

Advertisements
Track Severe Weather on mobile